Windsor Airport
CYQG : rendu visible

Aérodrome :











RETROUVEZ-NOUS SUR...

 
LOGIN :

S'inscrire | Disclaimer

   EN    FR    IT 

 









Légende :    VFR   VFR Marginal   IFR   IFR Intensif   IFR Très Intensif
Visi : 
Plafond : 
>= 8 km
>= 3000ft
5 à 8 km
1000 à 3000 ft
1500m à 5 km
500 à 1000 ft
800 à 1500m
200 à 500 ft
< 800m
< 200 ft
Symboles :   Orages  Brouillard  Fortes neiges  Fortes précipitations  Vent > 20 kt






- Altitude de l'aérodrome : 622 ft
- Code IATA : YQG


CYQG - Windsor

DERNIER METAR :
  • 201000Z AUTO 34009KT 9SM OVC085 M08/M15 A3053 RMK SLP351

METARs EXPIRÉS :
  • 200900Z AUTO 34009KT 9SM OVC085 M07/M15 A3052 RMK SLP346
  • 200800Z AUTO 34010G16KT 9SM OVC090 M07/M15 A3053 RMK SLP350

TAF TAF CYQG
Valide du 20 à 06h jusqu'au 21 à 06h UTC


200538Z 2006/2106 31010G20KT P6SM FEW080
FM201700 31010G20KT P6SM FEW030
BECMG 2022/2024 30008KT RMK FCST BASED ON AUTO OBS. NXT FCST BY 201200Z



MET'MAP, la Météo Aéronautique d'un coup d'oeil ! - Copyright ORBIFLY Décembre 2007 - Disclaimer

ORBIFLY MET'MAP TEAM :

Programmation & Développement : Alexandra Zaïnal
Sur une idée originale de : Baudouin d'Aumeries
Assistance à la programmation : Marc-Olivier Méhu
Soutien technique & logistique : Manuel Goepfert

Contact : metmap@orbifly.com




SOURCES & CREDITS :

   NOAA       Earth
Advisory